Terminal Aerodrome Forecast
Issued by NWS

Home | Current Version | Previous Version | Graphics & Text | Print | Product List | Glossary Off
Versions: 1 2 3 4 5 6 7 8 9 10 11 12 13 14 15 16 17 18 19 20 21 22 23 24

000
FTUS43 KDDC 080524
TAFGCK
TAF
KGCK 080524Z 0806/0906 30014KT P6SM BKN090 OVC110
     FM081500 33025G33KT P6SM FEW250
     FM081900 33030G37KT P6SM FEW250
     FM090000 33013KT P6SM SKC=

USA.gov is the U.S. government's official web portal to all federal, state and local government web resources and services.